Time;durP1;ratioP1;P1;durP2;ratioP2;P2;SDS_P1;SDS_P2;PMS_P1;PMS_P2;Temp;Humidity;BMP_temperature;BMP_pressure;BME280_temperature;BME280_humidity;BME280_pressure;Samples;Min_cycle;Max_cycle;Signal;HPM_P1;HPM_P2
2020/12/09 00:01:58;;;;;;;65.30;30.63;;;2.10;91.80;;;;;;5065144;28;20047;-68
2020/12/09 00:04:24;;;;;;;62.95;28.90;;;2.10;91.70;;;;;;5065507;28;20382;-68
2020/12/09 00:06:50;;;;;;;64.88;31.30;;;2.00;91.70;;;;;;5065134;28;20063;-67
2020/12/09 00:09:19;;;;;;;67.65;30.48;;;1.90;91.80;;;;;;5063967;28;20037;-68
2020/12/09 00:11:45;;;;;;;65.22;31.40;;;2.00;91.90;;;;;;5063693;28;20530;-67
2020/12/09 00:14:11;;;;;;;64.68;30.75;;;2.00;92.00;;;;;;5063426;28;20035;-68
2020/12/09 00:16:38;;;;;;;69.68;32.70;;;2.00;92.00;;;;;;5067194;28;20043;-69
2020/12/09 00:19:05;;;;;;;59.60;30.23;;;2.00;92.00;;;;;;5062999;28;20039;-68
2020/12/09 00:21:32;;;;;;;65.57;30.52;;;2.00;92.00;;;;;;5064647;28;20375;-67
2020/12/09 00:23:58;;;;;;;60.40;28.58;;;2.00;92.10;;;;;;5066456;28;20016;-68
2020/12/09 00:26:26;;;;;;;52.42;28.02;;;2.00;91.90;;;;;;5058793;28;20431;-68
2020/12/09 00:28:53;;;;;;;47.88;24.35;;;2.00;91.90;;;;;;5057944;28;20071;-68
2020/12/09 00:31:21;;;;;;;50.85;27.23;;;2.00;91.90;;;;;;5065214;28;20079;-68
2020/12/09 00:33:47;;;;;;;48.92;23.80;;;2.00;91.80;;;;;;5065235;28;20448;-68
2020/12/09 00:36:14;;;;;;;48.35;25.27;;;1.90;91.80;;;;;;5065693;28;20330;-68
2020/12/09 00:38:40;;;;;;;46.55;24.83;;;2.00;91.80;;;;;;5066725;28;20025;-68
2020/12/09 00:41:06;;;;;;;40.90;22.98;;;1.90;91.70;;;;;;5067395;28;20472;-68
2020/12/09 00:43:32;;;;;;;46.15;24.08;;;1.90;91.70;;;;;;5069043;28;20077;-69
2020/12/09 00:45:57;;;;;;;42.08;22.98;;;1.90;91.80;;;;;;5068430;28;20554;-68
2020/12/09 00:48:24;;;;;;;44.60;24.33;;;2.00;91.80;;;;;;5065712;28;20345;-68
2020/12/09 00:50:49;;;;;;;42.85;23.60;;;2.00;91.70;;;;;;5068974;28;20078;-67
2020/12/09 00:53:15;;;;;;;46.15;24.08;;;2.00;91.60;;;;;;5063396;28;20045;-68
2020/12/09 00:55:41;;;;;;;40.63;22.67;;;2.00;91.60;;;;;;5067402;28;20486;-68
2020/12/09 00:58:06;;;;;;;41.47;22.48;;;1.90;91.50;;;;;;5065452;28;20491;-68
2020/12/09 01:00:32;;;;;;;38.47;21.30;;;1.90;91.50;;;;;;5068226;28;20312;-68
2020/12/09 01:02:58;;;;;;;39.78;22.25;;;1.90;91.50;;;;;;5067679;28;20458;-69
2020/12/09 01:05:23;;;;;;;37.90;22.33;;;1.90;91.50;;;;;;5066537;28;20078;-69
2020/12/09 01:07:49;;;;;;;38.00;21.63;;;1.80;91.40;;;;;;5068359;28;20024;-68
2020/12/09 01:10:15;;;;;;;32.00;19.48;;;1.80;91.40;;;;;;5066347;28;20340;-68
2020/12/09 01:12:41;;;;;;;36.85;20.95;;;1.80;91.40;;;;;;5066480;28;20070;-67
2020/12/09 01:15:08;;;;;;;33.22;20.02;;;1.80;91.40;;;;;;5060377;28;20108;-67
2020/12/09 01:17:34;;;;;;;33.83;20.73;;;1.80;91.50;;;;;;5059266;28;20416;-67
2020/12/09 01:20:01;;;;;;;35.28;21.10;;;1.80;91.40;;;;;;5068594;28;20451;-68
2020/12/09 01:22:26;;;;;;;36.20;20.35;;;1.70;91.20;;;;;;5063259;28;20041;-67
2020/12/09 01:24:52;;;;;;;33.95;19.95;;;1.70;91.30;;;;;;5062533;28;20044;-67
2020/12/09 01:27:25;;;;;;;36.30;20.58;;;1.70;91.30;;;;;;5064962;28;20036;-70
2020/12/09 01:29:51;;;;;;;36.10;20.48;;;1.70;91.40;;;;;;5057152;28;20068;-68
2020/12/09 01:32:17;;;;;;;35.58;20.42;;;1.80;91.30;;;;;;5066141;28;20114;-67
2020/12/09 01:34:43;;;;;;;36.25;20.98;;;1.70;91.40;;;;;;5064849;28;20028;-68
2020/12/09 01:37:09;;;;;;;35.78;21.63;;;1.80;91.40;;;;;;5067320;28;20120;-68
2020/12/09 01:39:34;;;;;;;37.17;21.25;;;1.80;91.40;;;;;;5060235;28;20029;-67
2020/12/09 01:42:00;;;;;;;37.55;19.98;;;1.70;91.30;;;;;;5069602;28;20024;-70
2020/12/09 01:44:25;;;;;;;36.78;20.73;;;1.70;91.30;;;;;;5073582;28;20060;-67
2020/12/09 01:46:53;;;;;;;36.47;19.17;;;1.60;91.30;;;;;;5068912;28;20037;-68
2020/12/09 01:49:19;;;;;;;35.90;21.33;;;1.60;91.40;;;;;;5067070;28;20094;-67
2020/12/09 01:51:45;;;;;;;36.90;20.60;;;1.60;91.70;;;;;;5061205;28;20407;-67
2020/12/09 01:54:11;;;;;;;37.15;21.30;;;1.60;91.60;;;;;;5060161;28;20052;-67
2020/12/09 01:56:36;;;;;;;39.63;21.30;;;1.70;91.70;;;;;;5055907;28;20479;-68
2020/12/09 01:59:02;;;;;;;36.63;20.73;;;1.60;91.80;;;;;;5067627;28;20120;-70
2020/12/09 02:01:30;;;;;;;44.28;21.40;;;1.70;91.80;;;;;;5069231;28;20036;-69
2020/12/09 02:03:55;;;;;;;38.22;21.67;;;1.70;91.90;;;;;;5056223;28;20458;-68
2020/12/09 02:06:21;;;;;;;35.08;19.30;;;1.70;91.80;;;;;;5057964;28;20021;-68
2020/12/09 02:08:47;;;;;;;34.72;18.80;;;1.60;91.70;;;;;;5060117;28;20037;-68
2020/12/09 02:11:13;;;;;;;35.95;20.00;;;1.60;91.80;;;;;;5055130;28;20025;-68
2020/12/09 02:13:46;;;;;;;36.88;19.88;;;1.60;91.70;;;;;;5066765;28;20028;-68
2020/12/09 02:16:18;;;;;;;35.78;20.38;;;1.60;91.70;;;;;;5060595;28;20037;-68
2020/12/09 02:18:44;;;;;;;38.17;21.08;;;1.60;91.70;;;;;;5057506;28;20531;-67
2020/12/09 02:21:09;;;;;;;38.03;21.15;;;1.60;91.80;;;;;;5057971;28;20029;-67
2020/12/09 02:23:35;;;;;;;39.38;20.85;;;1.60;91.80;;;;;;5064915;28;20372;-68
2020/12/09 02:26:01;;;;;;;43.08;22.77;;;1.60;91.80;;;;;;5053462;28;20024;-68
2020/12/09 02:28:26;;;;;;;49.75;24.75;;;1.70;91.80;;;;;;5059675;28;20119;-67
2020/12/09 02:30:52;;;;;;;54.67;27.20;;;1.60;91.80;;;;;;5059954;28;21022;-68
2020/12/09 02:33:18;;;;;;;61.03;29.05;;;1.60;91.90;;;;;;5067217;28;20047;-67
2020/12/09 02:35:44;;;;;;;64.55;30.83;;;1.60;92.00;;;;;;5059656;28;20027;-68
2020/12/09 02:38:10;;;;;;;68.65;29.33;;;1.60;92.20;;;;;;5067864;28;20032;-68
2020/12/09 02:40:37;;;;;;;59.28;28.17;;;1.60;92.20;;;;;;5068309;28;20046;-67
2020/12/09 02:43:03;;;;;;;64.88;29.08;;;1.60;91.90;;;;;;5064623;28;20028;-68
2020/12/09 02:45:28;;;;;;;64.65;29.15;;;1.50;92.00;;;;;;5064686;28;20474;-68
2020/12/09 02:47:55;;;;;;;67.10;30.70;;;1.50;92.00;;;;;;5065140;28;20029;-67
2020/12/09 02:50:20;;;;;;;70.70;30.67;;;1.50;92.20;;;;;;5068544;28;20032;-67
2020/12/09 02:52:46;;;;;;;78.57;32.17;;;1.50;92.30;;;;;;5069374;28;20075;-67
2020/12/09 02:55:12;;;;;;;76.95;31.27;;;1.50;92.30;;;;;;5061220;28;20426;-68
2020/12/09 02:57:37;;;;;;;72.00;33.45;;;1.50;92.40;;;;;;5068028;28;20324;-70
2020/12/09 03:00:06;;;;;;;76.85;31.83;;;1.50;92.40;;;;;;5066426;28;20475;-70
2020/12/09 03:02:32;;;;;;;81.70;32.78;;;1.50;92.60;;;;;;5067700;28;20039;-69
2020/12/09 03:04:57;;;;;;;84.63;33.65;;;1.60;92.50;;;;;;5062092;28;20048;-67
2020/12/09 03:07:23;;;;;;;83.22;34.65;;;1.60;92.50;;;;;;5061978;28;20394;-67
2020/12/09 03:09:49;;;;;;;81.35;33.75;;;1.60;92.60;;;;;;5068272;28;20044;-67
2020/12/09 03:12:15;;;;;;;85.07;34.25;;;1.60;92.50;;;;;;5059976;28;20078;-67
2020/12/09 03:14:40;;;;;;;86.28;35.40;;;1.60;92.50;;;;;;5064723;28;20036;-68
2020/12/09 03:17:06;;;;;;;81.15;33.70;;;1.60;92.50;;;;;;5065843;28;20383;-68
2020/12/09 03:19:31;;;;;;;86.03;35.33;;;1.60;92.60;;;;;;5065707;28;20024;-67
2020/12/09 03:21:57;;;;;;;86.90;34.00;;;1.60;92.60;;;;;;5060772;28;20030;-68
2020/12/09 03:24:23;;;;;;;82.35;33.92;;;1.60;92.70;;;;;;5061929;28;20040;-67
2020/12/09 03:26:48;;;;;;;74.47;32.20;;;1.60;92.70;;;;;;5051890;28;20028;-71
2020/12/09 03:29:14;;;;;;;85.68;35.78;;;1.60;92.80;;;;;;5055324;28;20367;-68
2020/12/09 03:31:40;;;;;;;84.18;33.55;;;1.60;92.70;;;;;;5064676;28;20064;-67
2020/12/09 03:34:05;;;;;;;82.47;34.75;;;1.70;92.70;;;;;;5069179;28;20033;-67
2020/12/09 03:36:31;;;;;;;95.70;37.10;;;1.60;92.70;;;;;;5054738;28;20074;-68
2020/12/09 03:38:57;;;;;;;91.05;35.75;;;1.60;92.80;;;;;;5052561;28;20479;-68
2020/12/09 03:41:22;;;;;;;90.97;33.58;;;1.60;92.90;;;;;;5061687;28;20032;-68
2020/12/09 03:43:48;;;;;;;87.25;35.25;;;1.60;92.90;;;;;;5064669;28;20462;-69
2020/12/09 03:46:14;;;;;;;75.80;33.17;;;1.60;92.80;;;;;;5062751;28;20033;-68
2020/12/09 03:48:39;;;;;;;89.18;32.50;;;1.60;92.90;;;;;;5067452;28;20029;-68
2020/12/09 03:51:05;;;;;;;81.43;32.50;;;1.60;93.00;;;;;;5070182;28;20063;-68
2020/12/09 03:53:32;;;;;;;87.55;32.15;;;1.60;93.10;;;;;;5058635;28;20375;-68
2020/12/09 03:55:59;;;;;;;89.50;31.67;;;1.60;93.10;;;;;;5048897;28;20044;-68
2020/12/09 03:58:24;;;;;;;78.82;30.45;;;1.60;93.20;;;;;;5064487;28;20546;-68
2020/12/09 04:00:50;;;;;;;72.78;29.77;;;1.60;93.20;;;;;;5058881;28;20028;-68
2020/12/09 04:03:16;;;;;;;69.60;28.85;;;1.60;93.30;;;;;;5062202;28;20456;-68
2020/12/09 04:05:41;;;;;;;72.70;28.50;;;1.60;93.20;;;;;;5061063;28;20028;-67
2020/12/09 04:08:07;;;;;;;65.30;26.70;;;1.60;93.20;;;;;;5064386;28;20102;-71
2020/12/09 04:10:32;;;;;;;66.00;27.17;;;1.60;93.10;;;;;;5062929;28;20037;-67
2020/12/09 04:12:58;;;;;;;68.53;27.15;;;1.50;93.10;;;;;;5057654;28;20044;-68
2020/12/09 04:15:24;;;;;;;69.40;27.95;;;1.50;93.10;;;;;;5068151;28;20029;-67
2020/12/09 04:17:49;;;;;;;61.60;26.20;;;1.50;93.20;;;;;;5067214;28;20025;-68
2020/12/09 04:20:15;;;;;;;64.82;27.15;;;1.50;93.20;;;;;;5060292;28;20078;-70
2020/12/09 04:22:41;;;;;;;63.67;26.20;;;1.60;93.20;;;;;;5063779;28;20037;-68
2020/12/09 04:25:06;;;;;;;64.20;26.13;;;1.60;93.10;;;;;;5064069;28;20029;-67
2020/12/09 04:27:32;;;;;;;64.60;25.77;;;1.60;93.20;;;;;;5066448;28;20470;-68
2020/12/09 04:29:57;;;;;;;59.22;26.92;;;1.60;93.20;;;;;;5067681;28;20048;-67
2020/12/09 04:32:24;;;;;;;67.05;26.45;;;1.60;93.10;;;;;;5065402;28;20575;-68
2020/12/09 04:34:50;;;;;;;62.47;26.85;;;1.60;93.00;;;;;;5062231;28;20062;-67
2020/12/09 04:37:19;;;;;;;62.03;25.63;;;1.60;93.00;;;;;;5070517;28;20447;-67
2020/12/09 04:39:44;;;;;;;58.60;25.65;;;1.60;93.00;;;;;;5064294;28;20029;-68
2020/12/09 04:42:17;;;;;;;52.33;24.10;;;1.60;93.00;;;;;;5053072;28;20467;-67
2020/12/09 04:44:44;;;;;;;48.17;22.23;;;1.60;93.00;;;;;;5062610;28;20020;-67
2020/12/09 04:47:17;;;;;;;54.53;27.35;;;1.60;92.80;;;;;;5062795;28;20032;-68
2020/12/09 04:49:46;;;;;;;46.90;21.95;;;1.60;93.00;;;;;;5068760;28;20025;-67
2020/12/09 04:52:42;;;;;;;53.88;22.95;;;1.60;93.00;;;;;;5062889;28;20097;-71
2020/12/09 04:55:10;;;;;;;50.03;22.65;;;1.60;93.00;;;;;;5066153;28;20043;-68
2020/12/09 04:57:51;;;;;;;46.90;21.52;;;1.60;93.00;;;;;;5068004;28;20035;-68
2020/12/09 05:00:17;;;;;;;49.47;22.05;;;1.60;93.10;;;;;;5066838;28;20036;-69
2020/12/09 05:02:48;;;;;;;51.88;23.65;;;1.60;93.10;;;;;;5068772;28;20379;-68
2020/12/09 05:05:22;;;;;;;54.17;24.65;;;1.70;93.10;;;;;;5063320;28;20021;-68
2020/12/09 05:07:49;;;;;;;47.10;22.38;;;1.70;93.00;;;;;;5063477;28;20826;-67
2020/12/09 05:10:20;;;;;;;55.67;24.10;;;1.70;93.00;;;;;;5062025;28;20032;-68
2020/12/09 05:12:49;;;;;;;51.22;24.30;;;1.70;93.10;;;;;;5064793;28;20042;-68
2020/12/09 05:15:18;;;;;;;49.58;22.33;;;1.70;93.10;;;;;;5058028;28;20045;-67
2020/12/09 05:18:06;;;;;;;50.55;22.65;;;1.70;93.10;;;;;;5065844;28;20040;-68
2020/12/09 05:20:37;;;;;;;48.55;23.63;;;1.80;93.10;;;;;;5064816;28;20024;-67
2020/12/09 05:23:05;;;;;;;57.03;25.25;;;1.80;93.00;;;;;;5065060;28;20383;-68
2020/12/09 05:25:32;;;;;;;61.53;25.70;;;1.70;92.90;;;;;;5062645;28;20035;-67
2020/12/09 05:27:58;;;;;;;53.22;23.70;;;1.80;93.00;;;;;;5064460;28;20497;-68
2020/12/09 05:30:40;;;;;;;56.08;25.40;;;1.90;92.90;;;;;;5066511;28;20055;-69
2020/12/09 05:33:07;;;;;;;58.95;24.02;;;1.80;92.90;;;;;;5067986;28;20064;-68
2020/12/09 05:35:33;;;;;;;64.40;26.75;;;1.90;93.00;;;;;;5067748;28;20101;-68
2020/12/09 05:38:10;;;;;;;57.92;25.98;;;1.90;92.90;;;;;;5064012;28;20794;-70
2020/12/09 05:40:37;;;;;;;61.08;24.90;;;1.90;92.90;;;;;;5066218;28;20033;-67
2020/12/09 05:43:02;;;;;;;61.40;24.58;;;1.90;93.00;;;;;;5067633;28;20055;-67
2020/12/09 05:45:28;;;;;;;56.53;25.38;;;1.90;93.00;;;;;;5063406;28;20029;-68
2020/12/09 05:48:24;;;;;;;61.95;25.83;;;1.90;93.00;;;;;;5063975;28;20036;-69
2020/12/09 05:50:51;;;;;;;67.95;26.70;;;1.90;93.10;;;;;;5058467;28;20033;-70
2020/12/09 05:53:24;;;;;;;68.50;26.83;;;2.00;93.20;;;;;;5057216;28;20476;-67
2020/12/09 05:55:56;;;;;;;57.97;26.50;;;2.00;93.00;;;;;;5064542;28;20035;-67
2020/12/09 05:58:26;;;;;;;60.28;26.48;;;2.00;93.10;;;;;;5060282;28;20058;-69
2020/12/09 06:01:08;;;;;;;65.38;26.75;;;2.10;93.10;;;;;;5063947;28;20463;-68
2020/12/09 06:03:35;;;;;;;64.22;27.17;;;2.10;93.00;;;;;;5058700;28;20178;-69
2020/12/09 06:06:08;;;;;;;57.85;26.45;;;2.10;93.00;;;;;;5063678;28;20025;-68
2020/12/09 06:08:45;;;;;;;57.65;25.30;;;2.10;93.00;;;;;;5039289;28;20038;-69
2020/12/09 06:11:13;;;;;;;62.58;26.50;;;2.00;93.00;;;;;;5040936;28;20422;-68
2020/12/09 06:13:39;;;;;;;61.45;26.70;;;2.00;93.10;;;;;;5039382;28;20123;-68
2020/12/09 06:16:07;;;;;;;55.53;24.92;;;2.10;93.10;;;;;;5034836;28;20064;-68
2020/12/09 06:18:34;;;;;;;54.78;26.35;;;2.00;93.00;;;;;;5049726;28;20036;-68
2020/12/09 06:21:00;;;;;;;61.80;26.70;;;2.10;93.10;;;;;;5048200;28;20155;-67
2020/12/09 06:23:28;;;;;;;59.13;26.27;;;2.10;93.10;;;;;;5045741;28;20041;-67
2020/12/09 06:25:58;;;;;;;60.00;24.20;;;2.10;93.10;;;;;;5044302;28;20085;-68
2020/12/09 06:28:26;;;;;;;64.75;25.88;;;2.00;93.10;;;;;;5038715;28;20041;-70
2020/12/09 06:30:54;;;;;;;62.30;25.75;;;2.00;93.30;;;;;;5035677;28;20040;-68
2020/12/09 06:33:33;;;;;;;64.82;25.95;;;2.00;93.30;;;;;;5032035;28;20037;-67
2020/12/09 06:36:11;;;;;;;60.20;25.17;;;2.00;93.30;;;;;;5035840;28;20533;-69
2020/12/09 06:38:37;;;;;;;61.83;25.50;;;2.00;93.40;;;;;;5032771;28;20049;-67
2020/12/09 06:41:05;;;;;;;55.95;24.48;;;2.10;93.40;;;;;;5043661;28;20025;-68
2020/12/09 06:43:31;;;;;;;53.55;22.60;;;2.10;93.40;;;;;;5032381;28;20064;-67
2020/12/09 06:45:57;;;;;;;55.05;24.65;;;2.10;93.50;;;;;;5044330;28;20040;-68
2020/12/09 06:48:24;;;;;;;57.15;24.38;;;2.10;93.40;;;;;;5037114;28;20029;-68
2020/12/09 06:50:51;;;;;;;56.72;25.52;;;2.10;93.40;;;;;;5040874;28;20076;-68
2020/12/09 06:53:20;;;;;;;55.17;24.08;;;2.10;93.40;;;;;;5039857;28;20051;-68
2020/12/09 06:55:47;;;;;;;54.55;23.85;;;2.10;93.40;;;;;;5044042;28;20193;-68
2020/12/09 06:58:26;;;;;;;56.50;23.98;;;2.10;93.40;;;;;;5036793;28;20143;-71
2020/12/09 07:01:06;;;;;;;57.53;24.17;;;2.10;93.40;;;;;;5033032;28;20033;-71
2020/12/09 07:03:37;;;;;;;52.30;23.63;;;2.10;93.40;;;;;;5040905;28;20420;-69
2020/12/09 07:06:29;;;;;;;58.28;23.98;;;2.20;93.40;;;;;;5040731;28;20053;-68
2020/12/09 07:08:54;;;;;;;54.42;23.50;;;2.10;93.40;;;;;;5039886;28;20445;-68
2020/12/09 07:11:20;;;;;;;53.47;23.42;;;2.20;93.40;;;;;;5043489;28;20045;-68
2020/12/09 07:13:46;;;;;;;55.35;23.73;;;2.20;93.40;;;;;;5033912;28;20099;-68
2020/12/09 07:16:12;;;;;;;53.85;22.98;;;2.20;93.40;;;;;;5049459;28;20403;-72
2020/12/09 07:18:38;;;;;;;56.20;24.15;;;2.10;93.30;;;;;;5065831;28;20044;-68
2020/12/09 07:21:08;;;;;;;58.63;24.77;;;2.20;93.50;;;;;;5054222;28;20041;-69
2020/12/09 07:23:34;;;;;;;59.63;24.10;;;2.10;93.50;;;;;;5063985;28;20430;-69
2020/12/09 07:26:00;;;;;;;56.42;24.52;;;2.20;93.50;;;;;;5060677;28;20058;-68
2020/12/09 07:28:32;;;;;;;51.10;23.35;;;2.20;93.50;;;;;;5054683;28;20040;-68
2020/12/09 07:31:08;;;;;;;50.42;23.30;;;2.20;93.40;;;;;;5066013;28;20032;-68
2020/12/09 07:33:34;;;;;;;52.72;24.25;;;2.20;93.50;;;;;;5065208;28;20443;-70
2020/12/09 07:36:08;;;;;;;54.10;24.73;;;2.10;93.50;;;;;;5064020;28;20123;-68
2020/12/09 07:38:33;;;;;;;51.53;23.07;;;2.10;93.50;;;;;;5050308;28;20051;-68
2020/12/09 07:41:02;;;;;;;55.72;24.52;;;2.10;93.50;;;;;;5054688;28;20340;-71
2020/12/09 07:43:29;;;;;;;53.08;24.75;;;2.10;93.50;;;;;;5063646;28;20036;-68
2020/12/09 07:46:03;;;;;;;54.58;24.33;;;2.10;93.60;;;;;;5058368;28;20024;-69
2020/12/09 07:48:31;;;;;;;54.42;24.48;;;2.10;93.50;;;;;;5063679;28;20115;-69
2020/12/09 07:50:58;;;;;;;59.63;25.48;;;2.00;93.60;;;;;;5064447;28;20468;-68
2020/12/09 07:53:24;;;;;;;57.67;23.63;;;2.00;93.60;;;;;;5060980;28;20063;-67
2020/12/09 07:55:50;;;;;;;57.95;26.15;;;2.00;93.70;;;;;;5061879;28;20485;-67
2020/12/09 07:58:17;;;;;;;54.22;25.17;;;2.00;93.70;;;;;;5059472;28;20046;-69
2020/12/09 08:00:48;;;;;;;54.83;23.60;;;2.00;93.70;;;;;;5061717;28;20047;-69
2020/12/09 08:03:27;;;;;;;57.92;24.35;;;2.00;93.70;;;;;;5062346;28;20111;-67
2020/12/09 08:05:55;;;;;;;53.33;25.75;;;2.00;93.70;;;;;;5055146;28;20024;-67
2020/12/09 08:08:22;;;;;;;55.35;24.10;;;2.10;93.70;;;;;;5043417;28;20083;-68
2020/12/09 08:10:49;;;;;;;49.25;23.40;;;2.00;93.60;;;;;;5043439;28;20025;-68
2020/12/09 08:13:25;;;;;;;45.85;21.10;;;2.00;93.60;;;;;;5038429;28;20056;-68
2020/12/09 08:16:11;;;;;;;49.00;22.70;;;1.90;93.60;;;;;;5041849;28;20029;-67
2020/12/09 08:18:41;;;;;;;43.08;22.17;;;1.90;93.70;;;;;;5061037;28;20028;-67
2020/12/09 08:21:10;;;;;;;48.63;22.60;;;1.90;93.60;;;;;;5048396;28;20029;-67
2020/12/09 08:23:42;;;;;;;46.50;22.55;;;1.90;93.70;;;;;;5042495;28;20041;-67
2020/12/09 08:26:09;;;;;;;50.78;22.63;;;1.90;93.50;;;;;;5043755;28;20083;-67
2020/12/09 08:28:35;;;;;;;47.28;20.67;;;1.90;93.60;;;;;;5041831;28;20055;-67
2020/12/09 08:31:16;;;;;;;44.53;22.33;;;1.90;93.60;;;;;;5037965;28;20033;-68
2020/12/09 08:33:42;;;;;;;39.75;19.85;;;2.00;93.60;;;;;;5042831;28;20030;-67
2020/12/09 08:36:09;;;;;;;42.90;19.98;;;1.90;93.50;;;;;;5040526;28;20033;-68
2020/12/09 08:38:56;;;;;;;43.88;20.17;;;1.90;93.40;;;;;;5043346;28;20907;-68
2020/12/09 08:41:33;;;;;;;45.63;22.45;;;1.90;93.40;;;;;;5045315;28;20083;-67
2020/12/09 08:44:00;;;;;;;46.30;23.02;;;1.90;93.40;;;;;;5038864;28;20053;-68
2020/12/09 08:46:27;;;;;;;50.30;23.63;;;1.90;93.40;;;;;;5055215;28;20380;-67
2020/12/09 08:48:54;;;;;;;52.13;21.70;;;1.90;93.30;;;;;;5052167;28;20104;-67
2020/12/09 08:51:34;;;;;;;54.58;23.13;;;1.90;93.40;;;;;;5042278;28;20395;-67
2020/12/09 08:54:01;;;;;;;48.83;22.58;;;1.90;93.20;;;;;;5044443;28;20594;-67
2020/12/09 08:56:32;;;;;;;44.05;21.85;;;1.80;93.30;;;;;;5041244;28;20101;-67
2020/12/09 08:58:58;;;;;;;48.45;22.23;;;1.80;93.30;;;;;;5041223;28;20159;-68
2020/12/09 09:01:24;;;;;;;49.33;22.60;;;1.80;93.40;;;;;;5047757;28;20170;-69
2020/12/09 09:04:06;;;;;;;52.97;23.65;;;1.90;93.40;;;;;;5045626;28;20117;-67
2020/12/09 09:06:32;;;;;;;45.90;21.95;;;1.90;93.40;;;;;;5042830;28;20124;-67
2020/12/09 09:08:57;;;;;;;51.22;23.40;;;1.80;93.30;;;;;;5042537;28;20116;-69
2020/12/09 09:11:24;;;;;;;54.00;25.23;;;1.90;93.40;;;;;;5041939;28;20391;-67
2020/12/09 09:13:52;;;;;;;48.88;22.50;;;1.90;93.30;;;;;;5043794;28;20430;-67
2020/12/09 09:16:18;;;;;;;45.50;21.92;;;1.80;93.10;;;;;;5046288;28;20094;-68
2020/12/09 09:18:44;;;;;;;44.72;21.48;;;1.90;93.30;;;;;;5038599;28;20033;-67
2020/12/09 09:21:10;;;;;;;45.25;22.92;;;1.90;93.20;;;;;;5041064;28;20042;-68
2020/12/09 09:23:35;;;;;;;48.50;22.42;;;1.80;93.10;;;;;;5044452;28;20044;-67
2020/12/09 09:26:01;;;;;;;44.67;21.27;;;1.80;93.20;;;;;;5061329;28;20041;-69
2020/12/09 09:28:26;;;;;;;52.03;23.60;;;1.90;93.20;;;;;;5046907;28;20037;-68
2020/12/09 09:30:52;;;;;;;48.33;21.77;;;1.90;93.10;;;;;;5067606;28;20032;-68
2020/12/09 09:33:18;;;;;;;51.35;23.92;;;1.80;93.10;;;;;;5067418;28;20399;-68
2020/12/09 09:35:43;;;;;;;47.72;20.75;;;1.90;93.20;;;;;;5068764;28;20032;-67
2020/12/09 09:38:09;;;;;;;46.00;22.60;;;1.90;93.10;;;;;;5061833;28;20125;-68
2020/12/09 09:40:35;;;;;;;47.45;23.10;;;1.80;93.00;;;;;;5062117;28;20039;-67
2020/12/09 09:43:01;;;;;;;47.75;23.45;;;1.90;93.10;;;;;;5065203;28;20040;-68
2020/12/09 09:45:26;;;;;;;52.20;23.15;;;1.90;93.10;;;;;;5059201;28;20392;-67
2020/12/09 09:47:52;;;;;;;48.80;21.92;;;1.90;93.10;;;;;;5068794;28;20032;-67
2020/12/09 09:50:20;;;;;;;45.47;21.45;;;1.90;93.10;;;;;;5064923;28;20476;-70
2020/12/09 09:52:46;;;;;;;41.03;19.17;;;1.90;93.10;;;;;;5068167;28;20107;-68
2020/12/09 09:55:11;;;;;;;38.30;19.17;;;1.90;93.00;;;;;;5056545;28;20044;-68
2020/12/09 09:57:37;;;;;;;41.65;19.60;;;2.00;93.10;;;;;;5045621;28;20075;-68
2020/12/09 10:00:05;;;;;;;33.55;18.08;;;2.10;92.90;;;;;;5046912;28;20033;-67
2020/12/09 10:02:31;;;;;;;35.65;18.40;;;2.00;92.80;;;;;;5045581;28;20073;-67
2020/12/09 10:04:57;;;;;;;33.63;18.13;;;2.10;92.80;;;;;;5049318;28;20476;-67
2020/12/09 10:07:23;;;;;;;35.80;18.15;;;2.10;92.70;;;;;;5045715;28;20032;-68
2020/12/09 10:09:48;;;;;;;35.88;19.13;;;2.20;92.60;;;;;;5042340;28;20535;-70
2020/12/09 10:12:14;;;;;;;35.65;20.33;;;2.10;92.30;;;;;;5061121;28;20485;-68
2020/12/09 10:14:39;;;;;;;32.80;18.88;;;2.10;92.40;;;;;;5043994;28;20128;-68
2020/12/09 10:17:05;;;;;;;33.40;20.23;;;2.10;92.50;;;;;;5049281;28;20033;-68
2020/12/09 10:19:31;;;;;;;30.15;17.67;;;2.10;92.50;;;;;;5040780;28;20509;-69
2020/12/09 10:22:00;;;;;;;35.15;17.58;;;2.20;92.40;;;;;;5046964;28;20033;-67
2020/12/09 10:24:26;;;;;;;30.63;16.90;;;2.20;92.50;;;;;;5058371;28;20103;-66
2020/12/09 10:26:51;;;;;;;30.98;16.42;;;2.20;92.50;;;;;;5041064;28;20464;-68
2020/12/09 10:29:17;;;;;;;28.73;15.93;;;2.20;92.40;;;;;;5041909;28;20094;-71
2020/12/09 10:31:45;;;;;;;28.23;16.00;;;2.20;92.30;;;;;;5047636;28;20056;-67
2020/12/09 10:34:14;;;;;;;28.95;15.52;;;2.10;92.30;;;;;;5039149;28;20115;-69
2020/12/09 10:36:44;;;;;;;41.55;16.15;;;2.20;92.20;;;;;;5042031;28;20048;-67
2020/12/09 10:39:10;;;;;;;23.08;14.10;;;2.30;92.10;;;;;;5041223;28;20116;-67
2020/12/09 10:41:40;;;;;;;25.60;14.52;;;2.30;92.00;;;;;;5040940;28;20063;-67
2020/12/09 10:44:06;;;;;;;29.48;15.23;;;2.30;92.00;;;;;;5043792;28;20137;-68
2020/12/09 10:46:35;;;;;;;25.58;14.45;;;2.40;91.90;;;;;;5040295;28;20496;-67
2020/12/09 10:49:02;;;;;;;25.63;15.15;;;2.40;91.90;;;;;;5044939;28;20116;-68
2020/12/09 10:51:28;;;;;;;26.95;15.43;;;2.50;91.90;;;;;;5039824;28;20025;-67
2020/12/09 10:53:55;;;;;;;28.20;15.68;;;2.50;91.70;;;;;;5043469;28;20040;-68
2020/12/09 10:56:31;;;;;;;26.88;14.82;;;2.60;91.50;;;;;;5048008;28;20044;-67
2020/12/09 10:58:58;;;;;;;26.55;14.07;;;2.60;91.40;;;;;;5050122;28;20026;-67
2020/12/09 11:01:28;;;;;;;33.92;18.13;;;2.60;91.40;;;;;;5051948;28;20464;-69
2020/12/09 11:03:55;;;;;;;46.17;27.60;;;2.70;91.20;;;;;;5059690;28;20044;-67
2020/12/09 11:06:31;;;;;;;29.35;15.73;;;2.70;91.20;;;;;;5062935;28;20054;-68
2020/12/09 11:08:58;;;;;;;36.15;21.77;;;2.70;91.20;;;;;;5065345;28;20028;-68
2020/12/09 11:11:24;;;;;;;40.17;22.63;;;2.70;91.30;;;;;;5047508;28;20047;-68
2020/12/09 11:13:50;;;;;;;30.83;17.90;;;2.80;91.10;;;;;;5040399;28;20029;-68
2020/12/09 11:16:17;;;;;;;35.92;21.98;;;2.90;91.00;;;;;;5042792;28;20456;-73
2020/12/09 11:18:43;;;;;;;32.15;18.45;;;2.90;91.00;;;;;;5048001;28;20036;-67
2020/12/09 11:21:09;;;;;;;31.65;17.60;;;2.90;91.00;;;;;;5061656;28;20487;-67
2020/12/09 11:23:35;;;;;;;30.17;15.35;;;2.90;90.90;;;;;;5061630;28;20041;-68
2020/12/09 11:26:01;;;;;;;32.83;17.75;;;2.90;90.90;;;;;;5064525;28;20076;-69
2020/12/09 11:28:27;;;;;;;32.63;18.38;;;2.90;91.00;;;;;;5064849;28;20049;-67
2020/12/09 11:30:52;;;;;;;35.47;19.05;;;2.90;91.10;;;;;;5064808;28;20032;-67
2020/12/09 11:33:18;;;;;;;34.13;20.55;;;3.00;91.20;;;;;;5057217;28;20056;-67
2020/12/09 11:35:44;;;;;;;32.28;18.25;;;3.10;91.10;;;;;;5061457;28;20052;-69
2020/12/09 11:38:09;;;;;;;35.38;18.20;;;3.10;90.90;;;;;;5061632;28;20036;-68
2020/12/09 11:40:35;;;;;;;33.58;18.98;;;3.10;90.80;;;;;;5060855;28;20032;-68
2020/12/09 11:43:00;;;;;;;33.13;17.15;;;3.10;90.80;;;;;;5062010;28;20051;-68
2020/12/09 11:45:26;;;;;;;33.08;19.17;;;3.10;90.90;;;;;;5059801;28;20496;-67
2020/12/09 11:47:52;;;;;;;36.72;18.48;;;3.10;91.00;;;;;;5060566;28;20476;-67
2020/12/09 11:50:17;;;;;;;34.85;18.40;;;3.20;91.00;;;;;;5064589;28;20454;-68
2020/12/09 11:52:43;;;;;;;36.55;19.15;;;3.20;90.80;;;;;;5058111;28;20068;-68
2020/12/09 11:55:11;;;;;;;33.95;18.73;;;3.20;90.80;;;;;;5058063;28;20120;-67
2020/12/09 11:57:36;;;;;;;34.20;18.23;;;3.40;91.00;;;;;;5061983;28;20314;-70
2020/12/09 12:00:04;;;;;;;34.88;19.58;;;3.40;90.90;;;;;;5062064;28;20028;-67
2020/12/09 12:02:30;;;;;;;35.20;19.17;;;3.50;90.80;;;;;;5058226;28;20037;-68
2020/12/09 12:04:56;;;;;;;34.00;19.23;;;3.60;90.70;;;;;;5061307;28;20352;-68
2020/12/09 12:07:22;;;;;;;34.28;18.45;;;3.60;90.60;;;;;;5060564;28;20390;-69
2020/12/09 12:09:48;;;;;;;35.03;20.92;;;3.60;90.60;;;;;;5061057;28;20112;-68
2020/12/09 12:12:14;;;;;;;33.72;19.20;;;3.60;90.60;;;;;;5057241;28;20374;-70
2020/12/09 12:14:39;;;;;;;36.22;20.33;;;3.60;90.60;;;;;;5062591;28;20066;-72
2020/12/09 12:17:08;;;;;;;36.67;20.60;;;3.60;90.40;;;;;;5062171;28;20102;-72
2020/12/09 12:19:35;;;;;;;35.40;19.55;;;3.70;90.60;;;;;;5058660;28;20052;-67
2020/12/09 12:22:01;;;;;;;35.67;20.48;;;3.70;90.40;;;;;;5062698;28;20047;-69
2020/12/09 12:24:26;;;;;;;37.00;21.40;;;3.70;90.40;;;;;;5059888;28;20031;-68
2020/12/09 12:26:52;;;;;;;38.17;21.58;;;3.90;90.50;;;;;;5053154;28;20045;-67
2020/12/09 12:29:17;;;;;;;37.70;21.73;;;3.90;90.20;;;;;;5061452;28;20037;-68
2020/12/09 12:31:43;;;;;;;39.95;22.55;;;3.90;90.30;;;;;;5059399;28;20028;-69
2020/12/09 12:34:09;;;;;;;43.08;25.23;;;3.90;90.10;;;;;;5068651;28;20098;-67
2020/12/09 12:36:34;;;;;;;41.83;25.95;;;4.00;90.20;;;;;;5062219;28;20076;-66
2020/12/09 12:39:00;;;;;;;42.35;27.10;;;3.90;90.10;;;;;;5068963;28;20052;-66